DAAJ/DJG METAR and TAF weather

Enter ICAO airport designator
Station Type Date Time Source
DAAJ METAR 2018/12/13 15:00 UTC NOAA

DAAJ 131500Z 27003KT CAVOK 21/05 Q1021


Station Type Date Time Source
DAAJ Decoded METAR 2018/12/13 15:00 UTC NOAA

Djanet, Algeria (DAAJ) 24-33N 009-28E 1054M
Dec 13, 2018 - 10:00 AM EST / 2018.12.13 1500 UTC
Wind: from the W (270 degrees) at 3 MPH (3 KT):0
Visibility: greater than 7 mile(s):0
Temperature: 69 F (21 C)
Dew Point: 41 F (5 C)
Relative Humidity: 35%
Pressure (altimeter): 30.15 in. Hg (1021 hPa)
ob: DAAJ 131500Z 27003KT CAVOK 21/05 Q1021
cycle: 15

Station Type Date Time Source
DAAJ TAF 2018/12/13 12:33 UTC NOAA

TAF TAF DAAJ 131100Z 1312/1412 22008KT CAVOK
BECMG 1317/1320 VRB02KT


Example: see airport list